This is the latest recevied weather packets stored in our database for station/object eb1ayw-13. If no packets are shown the sender has not sent any weather packets the latest 10 day(s).
| Time | Temp. | Humidity | Pressure | Rain* | Wind** | Luminosity | Snow |
|---|---|---|---|---|---|---|---|
| 1777246145 | 32.22° C | 29% | 1011.6 hPa | - | - | - | - |
| 1777245545 | 36.11° C | 25% | 1010.6 hPa | - | - | - | - |
| 1777244945 | 38.89° C | 23% | 1010 hPa | - | - | - | - |
| 1777244345 | 39.44° C | 22% | 1009.9 hPa | - | - | - | - |
| 1777243745 | 40.56° C | 21% | 1009.5 hPa | - | - | - | - |
| 1777243145 | 40.56° C | 21% | 1009.5 hPa | - | - | - | - |
| 1777242545 | 39.44° C | 22% | 1009.8 hPa | - | - | - | - |
| 1777241945 | 40.56° C | 21% | 1009.6 hPa | - | - | - | - |
| 1777241344 | 40.56° C | 21% | 1009.6 hPa | - | - | - | - |
| 1777240745 | 37.78° C | 23% | 1010.5 hPa | - | - | - | - |
| 1777240145 | 39.44° C | 20% | 1010 hPa | - | - | - | - |
| 1777239544 | 41.67° C | 19% | 1009.5 hPa | - | - | - | - |
| 1777238945 | 41.11° C | 19% | 1009.6 hPa | - | - | - | - |
| 1777238345 | 39.44° C | 21% | 1010 hPa | - | - | - | - |
| 1777237744 | 34.44° C | 26% | 1011.3 hPa | - | - | - | - |
| 1777237145 | 33.89° C | 27% | 1011.5 hPa | - | - | - | - |
| 1777236545 | 38.33° C | 22% | 1010 hPa | - | - | - | - |
| 1777235945 | 40.56° C | 20% | 1009.2 hPa | - | - | - | - |
| 1777235344 | 41.11° C | 20% | 1009.1 hPa | - | - | - | - |
| 1777234744 | 40.56° C | 20% | 1009.2 hPa | - | - | - | - |
| 1777234145 | 37.22° C | 24% | 1010 hPa | - | - | - | - |
| 1777233545 | 38.89° C | 22% | 1009.4 hPa | - | - | - | - |
| 1777232945 | 38.89° C | 22% | 1009.2 hPa | - | - | - | - |
| 1777232345 | 40.56° C | 20% | 1008.8 hPa | - | - | - | - |
| 1777231745 | 38.89° C | 22% | 1009.2 hPa | - | - | - | - |
* Rain since midnight (hover to see other rain measurements)
** Current wind speed in m/s (hover to see current wind gust speed)